Time;durP1;ratioP1;P1;durP2;ratioP2;P2;SDS_P1;SDS_P2;PMS_P1;PMS_P2;Temp;Humidity;BMP_temperature;BMP_pressure;BME280_temperature;BME280_humidity;BME280_pressure;Samples;Min_cycle;Max_cycle;Signal;HPM_P1;HPM_P2
2022/02/13 00:00:59;;;;;;;4.30;1.90;;;;;;;-1.46;77.00;101451.05;1756105;79;21100;-54
2022/02/13 00:03:25;;;;;;;4.00;1.73;;;;;;;-1.47;76.94;101445.30;1757691;80;21013;-53
2022/02/13 00:05:52;;;;;;;11.73;1.97;;;;;;;-1.49;76.88;101449.64;1755640;80;21058;-54
2022/02/13 00:08:18;;;;;;;4.87;2.63;;;;;;;-1.53;76.78;101455.25;1757161;80;21503;-53
2022/02/13 00:10:44;;;;;;;5.80;2.60;;;;;;;-1.57;76.77;101451.65;1754713;80;21657;-53
2022/02/13 00:13:11;;;;;;;10.40;2.67;;;;;;;-1.58;76.77;101456.88;1758870;80;21024;-52
2022/02/13 00:15:39;;;;;;;7.83;3.00;;;;;;;-1.60;76.85;101448.91;1756055;80;21097;-53
2022/02/13 00:18:05;;;;;;;10.77;3.50;;;;;;;-1.59;76.89;101455.09;1756104;79;21464;-54
2022/02/13 00:20:32;;;;;;;8.13;3.47;;;;;;;-1.59;76.87;101445.84;1749469;80;21089;-53
2022/02/13 00:22:58;;;;;;;4.90;3.40;;;;;;;-1.60;76.77;101442.73;1736667;81;21143;-52
2022/02/13 00:25:25;;;;;;;8.30;2.70;;;;;;;-1.61;76.70;101452.83;1737204;81;21053;-54
2022/02/13 00:27:52;;;;;;;5.50;2.50;;;;;;;-1.64;76.66;101459.36;1735181;81;21387;-53
2022/02/13 00:30:19;;;;;;;4.10;1.93;;;;;;;-1.64;76.66;101467.28;1730026;80;21031;-52
2022/02/13 00:32:45;;;;;;;3.90;1.10;;;;;;;-1.69;76.49;101467.13;1737615;81;21067;-54
2022/02/13 00:35:12;;;;;;;5.47;1.57;;;;;;;-1.72;76.55;101465.75;1735625;81;21108;-53
2022/02/13 00:37:41;;;;;;;2.97;1.00;;;;;;;-1.75;76.56;101469.61;1738756;81;21128;-54
2022/02/13 00:40:09;;;;;;;3.90;1.40;;;;;;;-1.76;76.64;101463.86;1738090;80;21061;-53
2022/02/13 00:42:35;;;;;;;4.33;1.47;;;;;;;-1.77;76.81;101458.11;1740340;81;20995;-53
2022/02/13 00:45:03;;;;;;;4.77;1.30;;;;;;;-1.76;76.90;101449.34;1739058;81;20970;-51
2022/02/13 00:47:30;;;;;;;7.27;1.87;;;;;;;-1.74;76.96;101454.67;1739324;81;21736;-54
2022/02/13 00:49:56;;;;;;;4.90;1.97;;;;;;;-1.74;76.92;101454.67;1737972;81;21400;-53
2022/02/13 00:52:23;;;;;;;3.97;1.67;;;;;;;-1.75;76.92;101451.55;1741686;81;21276;-52
2022/02/13 00:54:49;;;;;;;7.30;2.40;;;;;;;-1.76;76.95;101451.08;1740099;81;21544;-53
2022/02/13 00:57:15;;;;;;;8.30;2.53;;;;;;;-1.76;77.03;101447.13;1732168;80;21136;-53
2022/02/13 00:59:41;;;;;;;5.53;1.70;;;;;;;-1.77;77.06;101443.59;1738435;81;21077;-53
2022/02/13 01:02:09;;;;;;;4.70;2.10;;;;;;;-1.77;77.12;101438.30;1736409;81;21108;-52
2022/02/13 01:04:35;;;;;;;4.23;1.47;;;;;;;-1.76;77.12;101429.54;1732247;80;21053;-54
2022/02/13 01:07:02;;;;;;;4.13;2.20;;;;;;;-1.77;77.07;101424.21;1741607;81;21094;-51
2022/02/13 01:09:29;;;;;;;3.00;1.57;;;;;;;-1.78;77.00;101430.34;1738033;81;21526;-54
2022/02/13 01:11:55;;;;;;;5.53;2.27;;;;;;;-1.79;77.00;101444.41;1736499;81;21052;-53
2022/02/13 01:14:23;;;;;;;3.93;1.80;;;;;;;-1.80;77.00;101436.92;1740488;81;21435;-53
2022/02/13 01:16:49;;;;;;;4.43;1.50;;;;;;;-1.81;76.89;101436.87;1738561;80;21460;-53
2022/02/13 01:19:16;;;;;;;3.77;1.70;;;;;;;-1.82;76.88;101437.30;1743379;81;21059;-53
2022/02/13 01:21:42;;;;;;;3.57;1.50;;;;;;;-1.84;76.85;101438.09;1752820;79;20990;-54
2022/02/13 01:24:08;;;;;;;4.17;1.13;;;;;;;-1.87;76.86;101434.93;1757557;79;21751;-52
2022/02/13 01:26:35;;;;;;;7.63;2.03;;;;;;;-1.88;76.83;101437.55;1758027;79;21377;-54
2022/02/13 01:29:01;;;;;;;7.87;1.43;;;;;;;-1.89;76.90;101438.41;1755277;80;21513;-52
2022/02/13 01:31:28;;;;;;;4.50;1.67;;;;;;;-1.92;76.94;101437.88;1752037;80;21429;-52
2022/02/13 01:33:55;;;;;;;3.13;1.10;;;;;;;-1.93;76.97;101434.77;1735959;80;21575;-52
2022/02/13 01:36:22;;;;;;;4.77;2.07;;;;;;;-1.96;76.91;101437.34;1734134;81;21797;-52
2022/02/13 01:38:48;;;;;;;3.30;1.13;;;;;;;-1.97;77.05;101431.59;1735883;80;21648;-53
2022/02/13 01:41:15;;;;;;;4.67;1.30;;;;;;;-1.99;77.14;101439.45;1758002;80;20953;-53
2022/02/13 01:43:41;;;;;;;1.83;0.90;;;;;;;-1.99;77.18;101433.28;1759470;79;21427;-53
2022/02/13 01:46:08;;;;;;;2.30;1.00;;;;;;;-1.99;77.29;101431.95;1732077;80;21483;-53
2022/02/13 01:48:35;;;;;;;3.93;1.20;;;;;;;-1.98;77.30;101433.75;1755521;79;22003;-53
2022/02/13 01:51:02;;;;;;;3.03;1.10;;;;;;;-1.99;77.26;101440.77;1757232;79;21034;-54
2022/02/13 01:53:28;;;;;;;1.83;1.10;;;;;;;-1.99;77.28;101438.56;1729247;80;21105;-54
2022/02/13 01:55:55;;;;;;;3.60;1.10;;;;;;;-2.02;77.37;101434.08;1753028;79;21159;-54
2022/02/13 01:58:21;;;;;;;3.27;0.80;;;;;;;-2.00;77.40;101440.30;1730120;80;21029;-54
2022/02/13 02:00:48;;;;;;;2.87;0.90;;;;;;;-2.01;77.43;101438.50;1728196;81;21606;-54
2022/02/13 02:03:14;;;;;;;1.60;0.80;;;;;;;-2.01;77.50;101444.20;1729790;81;22425;-54
2022/02/13 02:05:42;;;;;;;2.90;1.40;;;;;;;-2.02;77.57;101445.05;1767535;79;21413;-54
2022/02/13 02:08:09;;;;;;;1.97;0.80;;;;;;;-2.03;77.63;101434.92;1768788;79;20912;-53
2022/02/13 02:10:36;;;;;;;2.20;1.00;;;;;;;-2.02;77.72;101442.41;1767001;79;21549;-53
2022/02/13 02:13:03;;;;;;;2.47;0.90;;;;;;;-2.05;77.67;101435.33;1733363;80;21523;-54
2022/02/13 02:15:32;;;;;;;3.40;1.00;;;;;;;-2.06;77.60;101417.70;1754950;80;21376;-54
2022/02/13 02:17:59;;;;;;;4.20;0.90;;;;;;;-2.05;77.67;101433.11;1757945;80;20891;-53
2022/02/13 02:20:29;;;;;;;2.30;0.80;;;;;;;-2.06;77.71;101428.68;1756756;80;20985;-53
2022/02/13 02:22:56;;;;;;;2.00;0.90;;;;;;;-2.08;77.73;101430.37;1757321;80;20949;-53
2022/02/13 02:25:24;;;;;;;2.43;1.00;;;;;;;-2.09;77.77;101433.85;1732480;80;20922;-53
2022/02/13 02:27:51;;;;;;;1.97;1.00;;;;;;;-2.10;77.82;101433.37;1757176;79;20953;-54
2022/02/13 02:30:17;;;;;;;2.40;0.90;;;;;;;-2.11;77.79;101429.84;1755762;80;22627;-53
2022/02/13 02:32:43;;;;;;;4.90;1.03;;;;;;;-2.11;77.87;101436.44;1755695;80;21609;-53
2022/02/13 02:35:10;;;;;;;2.50;1.30;;;;;;;-2.12;77.94;101437.28;1752407;80;21585;-54
2022/02/13 02:37:36;;;;;;;2.10;1.23;;;;;;;-2.12;77.90;101428.48;1752064;80;22780;-53
2022/02/13 02:40:03;;;;;;;3.00;1.00;;;;;;;-2.13;77.94;101430.25;1732384;80;22499;-52
2022/02/13 02:42:30;;;;;;;4.47;1.40;;;;;;;-2.13;77.94;101424.08;1754207;80;21111;-52
2022/02/13 02:44:57;;;;;;;5.90;1.07;;;;;;;-2.12;77.86;101429.80;1754874;80;21095;-55
2022/02/13 02:47:23;;;;;;;6.63;1.10;;;;;;;-2.14;77.83;101439.44;1756941;79;20978;-52
2022/02/13 02:49:49;;;;;;;2.43;1.20;;;;;;;-2.16;77.78;101428.83;1756021;80;22194;-53
2022/02/13 02:52:18;;;;;;;3.10;1.60;;;;;;;-2.17;77.77;101431.00;1760303;80;20894;-53
2022/02/13 02:54:45;;;;;;;2.77;1.17;;;;;;;-2.18;77.75;101428.30;1730032;80;21511;-54
2022/02/13 02:57:12;;;;;;;3.90;1.13;;;;;;;-2.20;77.65;101432.63;1734092;80;20934;-53
2022/02/13 02:59:40;;;;;;;2.73;1.10;;;;;;;-2.22;77.61;101431.72;1756632;79;21083;-54
2022/02/13 03:02:06;;;;;;;3.10;0.90;;;;;;;-2.23;77.56;101432.56;1745646;81;21139;-53
2022/02/13 03:04:32;;;;;;;6.10;1.73;;;;;;;-2.25;77.61;101428.98;1746528;81;21460;-54
2022/02/13 03:06:59;;;;;;;3.60;1.13;;;;;;;-2.27;77.59;101430.24;1748791;81;21052;-53
2022/02/13 03:09:26;;;;;;;3.47;1.10;;;;;;;-2.30;77.58;101433.67;1730718;80;21083;-54
2022/02/13 03:11:52;;;;;;;3.87;1.10;;;;;;;-2.30;77.60;101431.49;1754971;79;21305;-54
2022/02/13 03:14:19;;;;;;;4.87;1.47;;;;;;;-2.31;77.60;101437.19;1756210;80;21628;-54
2022/02/13 03:16:45;;;;;;;3.57;0.90;;;;;;;-2.31;77.62;101437.61;1754247;79;21567;-53
2022/02/13 03:19:12;;;;;;;2.47;0.90;;;;;;;-2.33;77.61;101440.62;1758601;79;21493;-54
2022/02/13 03:21:40;;;;;;;3.10;1.00;;;;;;;-2.34;77.53;101437.08;1739987;80;20978;-54
2022/02/13 03:24:07;;;;;;;3.40;1.13;;;;;;;-2.35;77.48;101435.71;1767998;80;21748;-54
2022/02/13 03:26:34;;;;;;;5.83;0.90;;;;;;;-2.37;77.49;101438.30;1768365;80;21144;-54
2022/02/13 03:29:00;;;;;;;2.13;1.00;;;;;;;-2.40;77.47;101434.27;1769955;80;21031;-54
2022/02/13 03:31:27;;;;;;;4.07;1.20;;;;;;;-2.41;77.46;101435.11;1767993;80;21433;-54
2022/02/13 03:35:53;;;;;;;3.67;1.43;;;;;;;-2.39;77.50;101434.74;1778565;78;26513;-53
2022/02/13 03:38:19;;;;;;;2.53;1.40;;;;;;;-2.44;77.40;101428.41;1740585;80;21123;-54
2022/02/13 03:40:46;;;;;;;4.13;1.00;;;;;;;-2.45;77.32;101430.58;1740741;80;21605;-53
2022/02/13 03:43:13;;;;;;;3.83;1.13;;;;;;;-2.46;77.28;101431.84;1708216;81;21382;-54
2022/02/13 03:45:39;;;;;;;2.27;1.10;;;;;;;-2.47;77.32;101427.45;1705352;81;21076;-54
2022/02/13 03:48:05;;;;;;;3.57;1.00;;;;;;;-2.47;77.35;101422.17;1704961;81;21476;-54
2022/02/13 03:50:32;;;;;;;3.23;1.43;;;;;;;-2.47;77.42;101418.22;1689055;82;21566;-54
2022/02/13 03:52:59;;;;;;;5.90;1.10;;;;;;;-2.46;77.31;101420.88;1690511;82;21199;-53
2022/02/13 03:55:25;;;;;;;5.47;1.23;;;;;;;-2.48;77.23;101420.37;1700626;82;21104;-53
2022/02/13 03:57:51;;;;;;;4.00;1.63;;;;;;;-2.48;77.12;101417.32;1672128;83;21100;-53
2022/02/13 04:00:18;;;;;;;2.60;0.97;;;;;;;-2.50;77.02;101412.84;1674820;83;20950;-54
2022/02/13 04:02:44;;;;;;;3.37;1.30;;;;;;;-2.53;77.01;101409.67;1690485;82;20898;-54
2022/02/13 04:05:11;;;;;;;3.23;1.00;;;;;;;-2.55;76.97;101406.09;1685852;82;21095;-53
2022/02/13 04:07:40;;;;;;;2.03;1.00;;;;;;;-2.57;76.90;101403.85;1687927;82;20891;-54
2022/02/13 04:10:08;;;;;;;2.97;0.80;;;;;;;-2.59;76.81;101406.86;1686978;82;20935;-53
2022/02/13 04:12:34;;;;;;;3.03;1.30;;;;;;;-2.61;76.73;101403.70;1685654;82;21476;-53
2022/02/13 04:15:01;;;;;;;3.70;1.10;;;;;;;-2.64;76.70;101396.61;1691484;82;20935;-53
2022/02/13 04:17:27;;;;;;;1.83;0.90;;;;;;;-2.64;76.76;101400.56;1690641;82;21158;-53
2022/02/13 04:19:54;;;;;;;3.23;1.37;;;;;;;-2.66;76.76;101398.30;1687052;82;20977;-53
2022/02/13 04:22:20;;;;;;;2.17;1.00;;;;;;;-2.67;76.82;101396.50;1687396;82;20974;-54
2022/02/13 04:24:46;;;;;;;1.90;0.90;;;;;;;-2.69;76.85;101385.91;1685185;82;22117;-53
2022/02/13 04:27:13;;;;;;;2.13;1.00;;;;;;;-2.71;76.96;101390.22;1685450;82;21484;-53
2022/02/13 04:29:39;;;;;;;2.40;1.23;;;;;;;-2.71;76.96;101387.59;1686512;82;21432;-53
2022/02/13 04:32:07;;;;;;;4.43;0.80;;;;;;;-2.71;76.91;101396.81;1684071;82;21484;-53
2022/02/13 04:34:33;;;;;;;3.90;0.90;;;;;;;-2.72;76.79;101400.72;1680366;82;20959;-53
2022/02/13 04:36:59;;;;;;;2.40;1.23;;;;;;;-2.74;76.69;101398.48;1673507;83;20942;-53
2022/02/13 04:39:26;;;;;;;3.40;1.13;;;;;;;-2.75;76.72;101403.27;1673722;83;20935;-53
2022/02/13 04:41:52;;;;;;;4.10;1.07;;;;;;;-2.76;76.79;101397.53;1673518;83;21168;-53
2022/02/13 04:44:18;;;;;;;2.50;0.90;;;;;;;-2.77;76.90;101400.59;1710618;81;20983;-54
2022/02/13 04:46:44;;;;;;;1.60;0.90;;;;;;;-2.76;76.99;101400.16;1711627;81;20979;-53
2022/02/13 04:49:11;;;;;;;2.13;1.00;;;;;;;-2.77;77.07;101392.68;1710181;81;21078;-54
2022/02/13 04:51:37;;;;;;;2.67;1.10;;;;;;;-2.78;77.07;101389.99;1710695;81;21429;-52
2022/02/13 04:54:03;;;;;;;3.20;0.90;;;;;;;-2.77;77.21;101395.73;1708379;81;21092;-53
2022/02/13 04:56:31;;;;;;;3.10;0.90;;;;;;;-2.77;77.29;101400.59;1712944;81;21316;-53
2022/02/13 04:58:58;;;;;;;4.90;1.20;;;;;;;-2.77;77.34;101395.31;1713800;81;20864;-52
2022/02/13 05:01:24;;;;;;;2.67;1.00;;;;;;;-2.78;77.52;101382.98;1709741;81;21061;-53
2022/02/13 05:03:50;;;;;;;2.87;1.10;;;;;;;-2.76;77.63;101386.98;1707775;81;21141;-53
2022/02/13 05:06:16;;;;;;;5.90;1.60;;;;;;;-2.74;77.75;101397.16;1708706;81;22195;-53
2022/02/13 05:08:43;;;;;;;6.00;3.23;;;;;;;-2.75;77.71;101393.63;1707435;81;21694;-53
2022/02/13 05:11:09;;;;;;;5.10;1.43;;;;;;;-2.73;77.72;101405.12;1712174;81;21856;-53
2022/02/13 05:13:36;;;;;;;3.33;1.20;;;;;;;-2.72;77.72;101398.98;1711114;81;21721;-53
2022/02/13 05:16:03;;;;;;;4.13;1.40;;;;;;;-2.73;77.71;101401.17;1707547;81;21527;-53
2022/02/13 05:18:29;;;;;;;3.07;1.67;;;;;;;-2.73;77.75;101406.44;1707440;81;21528;-54
2022/02/13 05:20:56;;;;;;;7.03;1.70;;;;;;;-2.74;77.74;101392.79;1710649;81;21480;-53
2022/02/13 05:23:24;;;;;;;5.40;1.63;;;;;;;-2.74;77.78;101398.06;1711972;81;21022;-53
2022/02/13 05:25:50;;;;;;;4.43;1.57;;;;;;;-2.74;77.80;101407.70;1709324;81;21050;-52
2022/02/13 05:28:18;;;;;;;3.93;1.40;;;;;;;-2.74;77.85;101402.44;1711959;81;21081;-53
2022/02/13 05:30:44;;;;;;;6.27;2.10;;;;;;;-2.72;77.89;101398.98;1707440;81;21132;-53
2022/02/13 05:33:11;;;;;;;3.17;1.43;;;;;;;-2.71;77.94;101405.14;1708255;81;21085;-53
2022/02/13 05:35:37;;;;;;;5.90;1.97;;;;;;;-2.69;77.92;101411.37;1717249;80;21093;-53
2022/02/13 05:38:04;;;;;;;5.73;1.30;;;;;;;-2.68;77.89;101411.42;1717641;80;21101;-53
2022/02/13 05:40:31;;;;;;;3.93;1.13;;;;;;;-2.65;77.96;101411.05;1718511;80;21078;-53
2022/02/13 05:42:57;;;;;;;4.57;1.50;;;;;;;-2.61;78.03;101406.33;1722488;80;21471;-53
2022/02/13 05:45:24;;;;;;;4.67;1.23;;;;;;;-2.56;78.01;101401.69;1716496;80;21435;-53
2022/02/13 05:47:51;;;;;;;6.90;1.20;;;;;;;-2.47;77.99;101402.39;1716896;80;21112;-53
2022/02/13 05:50:18;;;;;;;3.13;1.20;;;;;;;-2.42;77.90;101400.78;1718654;80;21050;-54
2022/02/13 05:52:44;;;;;;;3.77;1.60;;;;;;;-2.39;77.79;101412.33;1715834;80;22295;-54
2022/02/13 05:55:11;;;;;;;3.43;1.07;;;;;;;-2.35;77.70;101408.02;1717706;80;21504;-53
2022/02/13 05:57:42;;;;;;;2.83;1.10;;;;;;;-2.30;77.68;101411.70;1715320;80;21602;-53
2022/02/13 06:00:13;;;;;;;4.53;1.10;;;;;;;-2.26;77.62;101402.13;1719961;80;21346;-52
2022/02/13 06:02:40;;;;;;;7.00;1.40;;;;;;;-2.21;77.68;101401.40;1716221;80;21054;-53
2022/02/13 06:05:09;;;;;;;2.90;1.53;;;;;;;-2.11;77.62;101406.10;1718573;80;21018;-52
2022/02/13 06:07:40;;;;;;;5.47;1.50;;;;;;;-2.02;77.56;101398.88;1719360;80;21300;-52
2022/02/13 06:10:09;;;;;;;4.90;1.37;;;;;;;-1.93;77.56;101398.72;1717994;80;21096;-52
2022/02/13 06:12:36;;;;;;;4.77;1.20;;;;;;;-1.83;77.47;101401.19;1656278;84;21105;-52
2022/02/13 06:15:07;;;;;;;3.90;1.57;;;;;;;-1.76;77.35;101403.14;1719055;81;21140;-52
2022/02/13 06:17:34;;;;;;;2.33;1.53;;;;;;;-1.68;77.27;101402.03;1718374;80;21001;-52
2022/02/13 06:20:00;;;;;;;3.43;1.40;;;;;;;-1.64;77.15;101407.45;1717763;80;21718;-52
2022/02/13 06:22:26;;;;;;;6.00;1.33;;;;;;;-1.60;77.11;101404.02;1718520;80;21455;-51
2022/02/13 06:24:53;;;;;;;2.00;1.30;;;;;;;-1.57;77.12;101408.08;1714676;80;21137;-52
2022/02/13 06:27:20;;;;;;;3.00;1.43;;;;;;;-1.49;77.17;101406.06;1717135;81;21124;-53
2022/02/13 06:29:48;;;;;;;4.27;1.80;;;;;;;-1.44;77.16;101399.14;1719162;80;21042;-52
2022/02/13 06:32:14;;;;;;;2.93;1.73;;;;;;;-1.39;77.13;101398.86;1717149;80;21682;-53
2022/02/13 06:34:40;;;;;;;4.23;1.70;;;;;;;-1.34;77.17;101399.43;1717155;80;21081;-53
2022/02/13 06:37:07;;;;;;;3.13;1.27;;;;;;;-1.28;77.16;101386.83;1719177;80;21037;-52
2022/02/13 06:39:35;;;;;;;3.83;1.40;;;;;;;-1.24;77.07;101383.39;1722005;80;21105;-52
2022/02/13 06:42:02;;;;;;;5.43;1.60;;;;;;;-1.20;77.10;101385.27;1724748;80;21077;-52
2022/02/13 06:44:28;;;;;;;5.50;1.87;;;;;;;-1.18;77.03;101383.11;1721389;80;21385;-53
2022/02/13 06:46:55;;;;;;;6.47;2.17;;;;;;;-1.10;77.06;101387.26;1722354;80;21054;-53
2022/02/13 06:49:21;;;;;;;5.13;2.43;;;;;;;-1.03;77.06;101392.30;1719794;80;21073;-53
2022/02/13 06:51:47;;;;;;;6.17;2.77;;;;;;;-0.99;77.04;101391.06;1723687;80;21125;-53
2022/02/13 06:54:14;;;;;;;4.77;2.00;;;;;;;-0.95;77.02;101391.62;1720809;80;21339;-53
2022/02/13 06:56:40;;;;;;;5.13;2.57;;;;;;;-0.91;76.99;101386.86;1722150;80;21421;-53
2022/02/13 06:59:06;;;;;;;7.40;2.30;;;;;;;-0.86;77.06;101382.59;1722941;80;21050;-53
2022/02/13 07:01:33;;;;;;;5.07;2.67;;;;;;;-0.79;77.03;101392.45;1721540;80;21132;-53
2022/02/13 07:03:59;;;;;;;3.67;1.70;;;;;;;-0.72;77.02;101389.94;1725559;80;21053;-53
2022/02/13 07:06:25;;;;;;;5.03;2.77;;;;;;;-0.67;76.99;101385.64;1724955;80;21085;-53
2022/02/13 07:08:52;;;;;;;8.23;2.80;;;;;;;-0.60;76.94;101387.59;1726623;80;21029;-53
2022/02/13 07:11:18;;;;;;;4.03;1.77;;;;;;;-0.54;76.93;101379.36;1722121;80;20926;-53
2022/02/13 07:13:46;;;;;;;6.47;3.10;;;;;;;-0.45;76.93;101381.31;1726490;80;20958;-53
2022/02/13 07:16:13;;;;;;;6.50;2.70;;;;;;;-0.36;76.77;101382.84;1725258;80;20954;-53
2022/02/13 07:18:39;;;;;;;3.80;1.77;;;;;;;-0.33;76.65;101376.27;1726587;80;21379;-53
2022/02/13 07:21:05;;;;;;;4.57;1.93;;;;;;;-0.27;76.62;101385.69;1729419;80;21401;-53
2022/02/13 07:23:32;;;;;;;2.57;1.57;;;;;;;-0.21;76.58;101381.84;1728088;80;20911;-54
2022/02/13 07:25:58;;;;;;;4.13;1.90;;;;;;;-0.16;76.42;101389.43;1728780;80;21404;-54
2022/02/13 07:31:10;;;;;;;3.77;1.50;;;;;;;-0.10;76.28;101381.64;1723117;80;21405;-55
2022/02/13 07:33:36;;;;;;;4.57;1.83;;;;;;;0.00;76.18;101386.70;1724867;80;21410;-54
2022/02/13 07:36:02;;;;;;;5.07;1.60;;;;;;;0.08;75.96;101380.23;1725832;80;20903;-54
2022/02/13 07:38:29;;;;;;;4.27;1.50;;;;;;;0.16;75.78;101382.16;1728552;80;21333;-55
2022/02/13 07:40:56;;;;;;;4.40;1.77;;;;;;;0.24;75.50;101377.02;1730033;80;21077;-55
2022/02/13 07:43:24;;;;;;;5.47;2.40;;;;;;;0.29;75.57;101371.36;1722000;80;21439;-55
2022/02/13 07:45:51;;;;;;;2.40;1.20;;;;;;;0.36;75.48;101370.61;1725964;80;21245;-55
2022/02/13 07:48:17;;;;;;;4.13;1.73;;;;;;;0.45;75.29;101372.10;1721781;80;21772;-55
2022/02/13 07:50:43;;;;;;;6.30;1.40;;;;;;;0.52;74.98;101372.67;1721267;80;21046;-56
2022/02/13 07:53:09;;;;;;;2.60;1.20;;;;;;;0.58;74.78;101366.61;1721139;80;21112;-55
2022/02/13 07:55:36;;;;;;;2.30;1.00;;;;;;;0.66;74.55;101367.63;1722945;80;22103;-55
2022/02/13 07:58:02;;;;;;;2.90;1.07;;;;;;;0.74;74.13;101360.27;1725789;80;21394;-56
2022/02/13 08:00:29;;;;;;;3.90;0.93;;;;;;;0.81;73.75;101360.37;1721882;80;22413;-57
2022/02/13 08:02:57;;;;;;;2.03;0.90;;;;;;;0.87;73.52;101359.13;1725132;80;21022;-57
2022/02/13 08:05:25;;;;;;;3.57;1.23;;;;;;;0.92;73.32;101357.03;1722331;80;21207;-59
2022/02/13 08:07:51;;;;;;;2.03;0.80;;;;;;;0.98;73.17;101353.58;1721345;80;21049;-59
2022/02/13 08:10:19;;;;;;;1.60;0.80;;;;;;;1.02;72.78;101356.75;1719180;80;21051;-58
2022/02/13 08:12:45;;;;;;;1.70;0.70;;;;;;;1.08;72.61;101362.14;1722464;80;21053;-59
2022/02/13 08:15:13;;;;;;;3.43;0.90;;;;;;;1.13;72.38;101347.19;1721949;80;21069;-58
2022/02/13 08:17:39;;;;;;;1.10;0.70;;;;;;;1.20;72.03;101350.81;1721381;80;21468;-58
2022/02/13 08:20:07;;;;;;;1.83;0.80;;;;;;;1.24;71.87;101341.61;1725378;80;21594;-58
2022/02/13 08:22:35;;;;;;;1.93;0.70;;;;;;;1.28;71.48;101339.45;1726250;80;21893;-58
2022/02/13 08:25:02;;;;;;;1.83;0.70;;;;;;;1.34;71.33;101343.97;1725834;80;21419;-58
2022/02/13 08:27:28;;;;;;;1.70;0.70;;;;;;;1.39;70.85;101337.84;1727610;80;21121;-57
2022/02/13 08:29:55;;;;;;;1.73;0.70;;;;;;;1.43;70.77;101344.11;1719671;80;21404;-57
2022/02/13 08:32:23;;;;;;;1.20;0.53;;;;;;;1.47;70.60;101338.84;1726008;80;21988;-57
2022/02/13 08:34:49;;;;;;;1.33;0.60;;;;;;;1.52;70.09;101337.59;1726664;80;21835;-57
2022/02/13 08:37:17;;;;;;;3.23;0.60;;;;;;;1.58;69.63;101332.80;1722538;80;21090;-57
2022/02/13 08:39:43;;;;;;;1.90;0.60;;;;;;;1.66;69.44;101331.13;1712604;81;21070;-57
2022/02/13 08:42:09;;;;;;;1.57;0.70;;;;;;;1.70;69.23;101331.64;1709285;81;21069;-58
2022/02/13 08:44:36;;;;;;;1.40;0.50;;;;;;;1.73;68.51;101327.23;1709741;81;21053;-57
2022/02/13 08:47:03;;;;;;;0.70;0.50;;;;;;;1.75;68.29;101331.25;1709582;81;21114;-58
2022/02/13 08:49:29;;;;;;;1.13;0.50;;;;;;;1.79;68.04;101327.31;1711951;81;21110;-57
2022/02/13 08:51:56;;;;;;;1.20;0.50;;;;;;;1.84;67.99;101325.63;1710831;81;21408;-58
2022/02/13 08:54:23;;;;;;;1.80;0.50;;;;;;;1.91;67.55;101329.23;1714091;81;21134;-55
2022/02/13 08:56:49;;;;;;;2.50;0.50;;;;;;;1.94;67.35;101332.37;1711516;81;21125;-54
2022/02/13 08:59:16;;;;;;;0.90;0.40;;;;;;;2.00;67.24;101325.36;1720381;81;21170;-55
2022/02/13 09:01:43;;;;;;;0.70;0.40;;;;;;;2.03;66.81;101330.72;1708119;81;21121;-55
2022/02/13 09:04:11;;;;;;;0.80;0.50;;;;;;;2.07;66.50;101342.25;1714874;81;21042;-56
2022/02/13 09:06:38;;;;;;;1.00;0.50;;;;;;;2.11;66.23;101322.83;1714996;81;21122;-55
2022/02/13 09:09:06;;;;;;;4.07;0.77;;;;;;;2.15;65.90;101324.63;1716555;81;21078;-54
2022/02/13 09:11:32;;;;;;;2.30;0.60;;;;;;;2.20;65.87;101315.85;1711847;81;21931;-57
2022/02/13 09:14:01;;;;;;;1.67;0.60;;;;;;;2.23;65.35;101321.17;1711651;81;21043;-56
2022/02/13 09:16:27;;;;;;;2.37;0.50;;;;;;;2.27;65.20;101323.01;1716385;81;21492;-55
2022/02/13 09:18:55;;;;;;;1.93;0.60;;;;;;;2.32;65.12;101320.81;1710675;81;21607;-55
2022/02/13 09:21:21;;;;;;;1.00;0.50;;;;;;;2.34;64.75;101320.41;1711877;81;21089;-55
2022/02/13 09:23:48;;;;;;;1.23;0.60;;;;;;;2.35;64.78;101315.55;1711219;81;21130;-55
2022/02/13 09:26:18;;;;;;;2.60;0.60;;;;;;;2.36;64.72;101308.92;1707943;81;21043;-56
2022/02/13 09:28:44;;;;;;;1.77;0.57;;;;;;;2.39;64.56;101311.59;1712876;81;21152;-55
2022/02/13 09:31:10;;;;;;;1.83;0.50;;;;;;;2.43;64.26;101310.75;1711143;81;21541;-56
2022/02/13 09:33:37;;;;;;;1.50;0.60;;;;;;;2.45;64.23;101311.67;1710291;81;21532;-55
2022/02/13 09:36:06;;;;;;;1.13;0.60;;;;;;;2.50;64.19;101310.37;1713518;80;21484;-55
2022/02/13 09:38:32;;;;;;;1.50;0.50;;;;;;;2.54;63.77;101309.53;1730465;80;21546;-55
2022/02/13 09:40:59;;;;;;;0.90;0.53;;;;;;;2.55;63.58;101300.69;1725420;80;21179;-54
2022/02/13 09:43:25;;;;;;;1.30;0.47;;;;;;;2.58;63.37;101296.27;1722103;80;21771;-54
2022/02/13 09:45:52;;;;;;;1.40;0.70;;;;;;;2.58;63.29;101294.94;1728796;80;21475;-54
2022/02/13 09:48:21;;;;;;;2.23;0.50;;;;;;;2.62;63.25;101291.88;1669822;83;22003;-55
2022/02/13 09:50:47;;;;;;;1.13;0.50;;;;;;;2.66;63.39;101295.89;1721515;80;20985;-54
2022/02/13 09:53:15;;;;;;;1.20;0.50;;;;;;;2.71;62.92;101287.08;1725931;80;20966;-55
2022/02/13 09:55:41;;;;;;;2.00;0.50;;;;;;;2.74;62.75;101277.34;1728693;80;20977;-54
2022/02/13 09:58:07;;;;;;;0.57;0.40;;;;;;;2.79;62.83;101280.05;1725358;80;21352;-54
2022/02/13 10:00:54;;;;;;;1.30;0.50;;;;;;;2.80;62.55;101277.41;1724573;80;21626;-54
2022/02/13 10:03:35;;;;;;;0.90;0.60;;;;;;;2.81;62.64;101267.19;1726009;80;21038;-54
2022/02/13 10:06:16;;;;;;;1.43;0.47;;;;;;;2.85;62.55;101262.36;1724627;80;21527;-55
2022/02/13 10:08:45;;;;;;;0.80;0.50;;;;;;;2.89;62.77;101260.16;1723039;80;21096;-55
2022/02/13 10:11:23;;;;;;;1.40;0.40;;;;;;;2.93;62.76;101255.76;1723706;80;21745;-54
2022/02/13 10:14:04;;;;;;;0.93;0.43;;;;;;;2.99;62.31;101251.80;1722950;80;21209;-54
2022/02/13 10:16:36;;;;;;;1.53;0.50;;;;;;;3.02;62.00;101238.09;1721807;80;21085;-55
2022/02/13 10:19:10;;;;;;;1.57;0.43;;;;;;;3.04;61.82;101248.31;1726568;80;20903;-55
2022/02/13 10:21:40;;;;;;;;;;;;;;;3.08;61.65;101237.22;1728934;80;20955;-56
2022/02/13 10:24:33;;;;;;;1.60;0.50;;;;;;;3.11;61.33;101238.58;1667150;83;20123;-55
2022/02/13 10:27:04;;;;;;;1.13;0.50;;;;;;;3.12;61.17;101235.05;1695371;82;21721;-55
2022/02/13 10:29:33;;;;;;;1.63;0.50;;;;;;;3.12;60.86;101236.38;1727968;80;20860;-55
2022/02/13 10:32:32;;;;;;;1.47;0.40;;;;;;;3.18;61.10;101223.53;1722968;80;20939;-55
2022/02/13 10:35:12;;;;;;;1.30;0.50;;;;;;;3.23;60.97;101225.80;1730123;80;20934;-54
2022/02/13 10:37:54;;;;;;;0.80;0.50;;;;;;;3.29;60.77;101225.38;1718415;80;20895;-56
2022/02/13 10:40:24;;;;;;;0.97;0.43;;;;;;;3.32;60.35;101227.14;1713455;81;22079;-55
2022/02/13 10:43:03;;;;;;;1.40;0.77;;;;;;;3.33;60.12;101223.16;1715328;81;21501;-56
2022/02/13 10:45:32;;;;;;;1.60;1.33;;;;;;;3.31;59.72;101218.30;1712952;81;20931;-56
2022/02/13 10:48:04;;;;;;;1.43;1.00;;;;;;;3.30;59.37;101204.54;1717560;81;20983;-56
2022/02/13 10:50:35;;;;;;;0.90;0.70;;;;;;;3.32;59.03;101211.17;1710492;81;21115;-56
2022/02/13 10:53:02;;;;;;;1.40;0.60;;;;;;;3.31;59.10;101200.11;1721010;81;21748;-57
2022/02/13 10:55:29;;;;;;;1.20;0.40;;;;;;;3.30;59.10;101191.67;1711644;81;20985;-57
2022/02/13 10:57:58;;;;;;;1.03;0.40;;;;;;;3.32;59.26;101193.88;1712010;81;21023;-58
2022/02/13 11:00:27;;;;;;;0.50;0.40;;;;;;;3.36;59.43;101186.36;1718823;81;20955;-56
2022/02/13 11:02:53;;;;;;;0.70;0.50;;;;;;;3.41;59.03;101178.83;1715414;81;20912;-57
2022/02/13 11:05:28;;;;;;;1.93;0.50;;;;;;;3.44;58.90;101184.62;1720177;81;21114;-57
2022/02/13 11:07:52;;;;;;;0.50;0.40;;;;;;;3.45;58.84;101182.41;1710119;81;21598;-57
2022/02/13 11:10:29;;;;;;;0.90;0.43;;;;;;;3.48;58.88;101178.44;1722277;81;21382;-57
2022/02/13 11:12:56;;;;;;;1.17;0.50;;;;;;;3.50;59.05;101174.42;1714101;81;20994;-57
2022/02/13 11:15:28;;;;;;;0.97;0.50;;;;;;;3.55;58.80;101173.57;1716113;81;21102;-57
2022/02/13 11:18:02;;;;;;;0.87;0.50;;;;;;;3.57;58.84;101169.14;1710479;81;21083;-57
2022/02/13 11:20:29;;;;;;;0.60;0.50;;;;;;;3.62;58.59;101165.15;1716806;81;21461;-57
2022/02/13 11:23:19;;;;;;;0.70;0.40;;;;;;;3.61;58.42;101159.37;1659256;83;20999;-58
2022/02/13 11:26:02;;;;;;;1.50;0.50;;;;;;;3.62;58.26;101165.15;1659351;84;21159;-58
2022/02/13 11:28:46;;;;;;;0.70;0.50;;;;;;;3.62;58.01;101157.16;1654674;84;21877;-57
2022/02/13 11:31:40;;;;;;;1.25;0.60;;;;;;;3.62;57.74;101150.06;1656704;84;21804;-57
2022/02/13 11:34:12;;;;;;;0.93;0.50;;;;;;;3.60;57.75;101145.61;1660091;84;21385;-57
2022/02/13 11:36:47;;;;;;;0.70;0.50;;;;;;;3.55;57.58;101154.05;1659828;84;21879;-58